sensor_id;sensor_type;location;lat;lon;timestamp;pressure;altitude;pressure_sealevel;temperature;humidity
62418;BME280;48456;54.242;10.280;2022-08-03T00:01:27;101316.78;;;17.65;100.00
62418;BME280;48456;54.242;10.280;2022-08-03T00:03:54;101315.06;;;17.64;100.00
62418;BME280;48456;54.242;10.280;2022-08-03T00:06:20;101312.41;;;17.63;100.00
62418;BME280;48456;54.242;10.280;2022-08-03T00:08:47;101317.97;;;17.55;100.00
62418;BME280;48456;54.242;10.280;2022-08-03T00:11:13;101311.94;;;17.47;100.00
62418;BME280;48456;54.242;10.280;2022-08-03T00:13:39;101308.53;;;17.40;100.00
62418;BME280;48456;54.242;10.280;2022-08-03T00:16:06;101305.94;;;17.37;100.00
62418;BME280;48456;54.242;10.280;2022-08-03T00:18:32;101306.91;;;17.33;100.00
62418;BME280;48456;54.242;10.280;2022-08-03T00:20:58;101308.84;;;17.27;100.00
62418;BME280;48456;54.242;10.280;2022-08-03T00:23:25;101303.66;;;17.21;100.00
62418;BME280;48456;54.242;10.280;2022-08-03T00:25:56;101296.66;;;17.16;100.00
62418;BME280;48456;54.242;10.280;2022-08-03T00:28:23;101302.03;;;17.14;100.00
62418;BME280;48456;54.242;10.280;2022-08-03T00:30:52;101299.44;;;17.09;100.00
62418;BME280;48456;54.242;10.280;2022-08-03T00:33:19;101298.63;;;17.07;100.00
62418;BME280;48456;54.242;10.280;2022-08-03T00:35:47;101296.91;;;17.05;100.00
62418;BME280;48456;54.242;10.280;2022-08-03T00:38:16;101297.88;;;17.00;100.00
62418;BME280;48456;54.242;10.280;2022-08-03T00:40:42;101298.03;;;16.93;100.00
62418;BME280;48456;54.242;10.280;2022-08-03T00:43:09;101300.00;;;16.84;100.00
62418;BME280;48456;54.242;10.280;2022-08-03T00:45:37;101303.75;;;16.75;100.00
62418;BME280;48456;54.242;10.280;2022-08-03T00:48:04;101297.53;;;16.75;100.00
62418;BME280;48456;54.242;10.280;2022-08-03T00:50:44;101296.72;;;16.71;100.00
62418;BME280;48456;54.242;10.280;2022-08-03T00:53:17;101296.78;;;16.68;100.00
62418;BME280;48456;54.242;10.280;2022-08-03T00:55:43;101301.25;;;16.68;100.00
62418;BME280;48456;54.242;10.280;2022-08-03T00:58:10;101292.41;;;16.66;100.00
62418;BME280;48456;54.242;10.280;2022-08-03T01:00:37;101290.72;;;16.61;100.00
62418;BME280;48456;54.242;10.280;2022-08-03T01:03:04;101291.78;;;16.53;100.00
62418;BME280;48456;54.242;10.280;2022-08-03T01:05:32;101283.91;;;16.46;100.00
62418;BME280;48456;54.242;10.280;2022-08-03T01:08:22;101285.78;;;16.43;100.00
62418;BME280;48456;54.242;10.280;2022-08-03T01:16:36;101281.66;;;16.26;100.00
62418;BME280;48456;54.242;10.280;2022-08-03T01:19:22;101282.59;;;16.23;100.00
62418;BME280;48456;54.242;10.280;2022-08-03T01:27:06;101267.66;;;16.13;100.00
62418;BME280;48456;54.242;10.280;2022-08-03T01:32:01;101278.41;;;16.10;100.00
62418;BME280;48456;54.242;10.280;2022-08-03T01:34:58;101271.34;;;16.07;100.00
62418;BME280;48456;54.242;10.280;2022-08-03T01:37:26;101268.78;;;16.03;100.00
62418;BME280;48456;54.242;10.280;2022-08-03T01:39:56;101272.44;;;15.97;100.00
62418;BME280;48456;54.242;10.280;2022-08-03T01:42:24;101271.59;;;15.93;100.00
62418;BME280;48456;54.242;10.280;2022-08-03T01:44:51;101268.09;;;15.90;100.00
62418;BME280;48456;54.242;10.280;2022-08-03T01:47:19;101267.28;;;15.86;100.00
62418;BME280;48456;54.242;10.280;2022-08-03T01:49:45;101269.09;;;15.82;100.00
62418;BME280;48456;54.242;10.280;2022-08-03T01:52:13;101266.53;;;15.79;100.00
62418;BME280;48456;54.242;10.280;2022-08-03T01:54:43;101268.28;;;15.79;100.00
62418;BME280;48456;54.242;10.280;2022-08-03T01:57:10;101261.19;;;15.79;100.00
62418;BME280;48456;54.242;10.280;2022-08-03T01:59:37;101262.00;;;15.83;100.00
62418;BME280;48456;54.242;10.280;2022-08-03T02:02:04;101261.06;;;15.84;100.00
62418;BME280;48456;54.242;10.280;2022-08-03T02:04:51;101263.69;;;15.87;100.00
62418;BME280;48456;54.242;10.280;2022-08-03T02:07:19;101257.41;;;15.90;100.00
62418;BME280;48456;54.242;10.280;2022-08-03T02:09:46;101256.47;;;15.92;100.00
62418;BME280;48456;54.242;10.280;2022-08-03T02:12:14;101255.63;;;15.92;100.00
62418;BME280;48456;54.242;10.280;2022-08-03T02:14:42;101256.56;;;15.89;100.00
62418;BME280;48456;54.242;10.280;2022-08-03T02:17:09;101253.06;;;15.84;100.00
62418;BME280;48456;54.242;10.280;2022-08-03T02:19:37;101251.41;;;15.78;100.00
62418;BME280;48456;54.242;10.280;2022-08-03T02:22:04;101249.75;;;15.72;100.00
62418;BME280;48456;54.242;10.280;2022-08-03T02:24:30;101250.72;;;15.68;100.00
62418;BME280;48456;54.242;10.280;2022-08-03T02:26:57;101253.44;;;15.65;100.00
62418;BME280;48456;54.242;10.280;2022-08-03T02:29:25;101249.06;;;15.61;100.00
62418;BME280;48456;54.242;10.280;2022-08-03T02:32:05;101252.69;;;15.57;100.00
62418;BME280;48456;54.242;10.280;2022-08-03T02:34:34;101251.81;;;15.56;100.00
62418;BME280;48456;54.242;10.280;2022-08-03T02:37:01;101257.13;;;15.56;100.00
62418;BME280;48456;54.242;10.280;2022-08-03T02:39:30;101250.88;;;15.59;100.00
62418;BME280;48456;54.242;10.280;2022-08-03T02:41:58;101247.34;;;15.57;100.00
62418;BME280;48456;54.242;10.280;2022-08-03T02:44:29;101243.88;;;15.53;100.00
62418;BME280;48456;54.242;10.280;2022-08-03T02:47:00;101242.06;;;15.54;100.00
62418;BME280;48456;54.242;10.280;2022-08-03T02:49:28;101244.75;;;15.52;100.00
62418;BME280;48456;54.242;10.280;2022-08-03T02:52:15;101242.09;;;15.52;100.00
62418;BME280;48456;54.242;10.280;2022-08-03T02:54:43;101242.06;;;15.54;100.00
62418;BME280;48456;54.242;10.280;2022-08-03T02:57:09;101252.75;;;15.54;100.00
62418;BME280;48456;54.242;10.280;2022-08-03T02:59:36;101241.22;;;15.53;100.00
62418;BME280;48456;54.242;10.280;2022-08-03T03:02:04;101237.63;;;15.54;100.00
62418;BME280;48456;54.242;10.280;2022-08-03T03:04:31;101239.41;;;15.54;100.00
62418;BME280;48456;54.242;10.280;2022-08-03T03:06:58;101239.44;;;15.52;100.00
62418;BME280;48456;54.242;10.280;2022-08-03T03:09:27;101231.41;;;15.54;100.00
62418;BME280;48456;54.242;10.280;2022-08-03T03:12:06;101226.16;;;15.51;100.00
62418;BME280;48456;54.242;10.280;2022-08-03T03:14:33;101226.19;;;15.49;100.00
62418;BME280;48456;54.242;10.280;2022-08-03T03:17:01;101231.59;;;15.44;100.00
62418;BME280;48456;54.242;10.280;2022-08-03T03:19:29;101228.97;;;15.41;100.00
62418;BME280;48456;54.242;10.280;2022-08-03T03:21:58;101236.97;;;15.40;100.00
62418;BME280;48456;54.242;10.280;2022-08-03T03:24:25;101233.50;;;15.36;100.00
62418;BME280;48456;54.242;10.280;2022-08-03T03:26:52;101236.16;;;15.38;100.00
62418;BME280;48456;54.242;10.280;2022-08-03T03:29:19;101236.16;;;15.36;100.00
62418;BME280;48456;54.242;10.280;2022-08-03T03:31:46;101243.25;;;15.37;100.00
62418;BME280;48456;54.242;10.280;2022-08-03T03:34:13;101238.84;;;15.35;100.00
62418;BME280;48456;54.242;10.280;2022-08-03T03:36:40;101241.53;;;15.33;100.00
62418;BME280;48456;54.242;10.280;2022-08-03T03:39:06;101237.16;;;15.30;100.00
62418;BME280;48456;54.242;10.280;2022-08-03T03:41:41;101237.13;;;15.32;100.00
62418;BME280;48456;54.242;10.280;2022-08-03T03:44:07;101230.03;;;15.32;100.00
62418;BME280;48456;54.242;10.280;2022-08-03T03:46:34;101233.56;;;15.31;100.00
62418;BME280;48456;54.242;10.280;2022-08-03T03:49:00;101239.78;;;15.33;100.00
62418;BME280;48456;54.242;10.280;2022-08-03T03:51:26;101236.22;;;15.33;100.00
62418;BME280;48456;54.242;10.280;2022-08-03T03:53:57;101236.22;;;15.33;100.00
62418;BME280;48456;54.242;10.280;2022-08-03T03:56:24;101236.22;;;15.31;100.00
62418;BME280;48456;54.242;10.280;2022-08-03T03:58:50;101235.38;;;15.31;100.00
62418;BME280;48456;54.242;10.280;2022-08-03T04:01:17;101238.88;;;15.33;100.00
62418;BME280;48456;54.242;10.280;2022-08-03T04:03:43;101243.34;;;15.32;100.00
62418;BME280;48456;54.242;10.280;2022-08-03T04:06:10;101236.19;;;15.35;100.00
62418;BME280;48456;54.242;10.280;2022-08-03T04:08:56;101241.53;;;15.35;100.00
62418;BME280;48456;54.242;10.280;2022-08-03T04:11:50;101244.16;;;15.36;100.00
62418;BME280;48456;54.242;10.280;2022-08-03T04:14:35;101244.13;;;15.39;100.00
62418;BME280;48456;54.242;10.280;2022-08-03T04:17:03;101241.34;;;15.44;100.00
62418;BME280;48456;54.242;10.280;2022-08-03T04:19:37;101239.53;;;15.48;100.00
62418;BME280;48456;54.242;10.280;2022-08-03T04:22:11;101236.75;;;15.54;100.00
62418;BME280;48456;54.242;10.280;2022-08-03T04:24:40;101239.38;;;15.57;100.00
62418;BME280;48456;54.242;10.280;2022-08-03T04:27:08;101244.63;;;15.62;100.00
62418;BME280;48456;54.242;10.280;2022-08-03T04:29:36;101249.00;;;15.66;100.00
62418;BME280;48456;54.242;10.280;2022-08-03T04:32:13;101235.50;;;15.74;100.00
62418;BME280;48456;54.242;10.280;2022-08-03T04:34:40;101246.00;;;15.81;100.00
62418;BME280;48456;54.242;10.280;2022-08-03T04:37:11;101249.41;;;15.90;100.00
62418;BME280;48456;54.242;10.280;2022-08-03T04:39:38;101245.66;;;16.02;100.00
62418;BME280;48456;54.242;10.280;2022-08-03T04:42:07;101247.25;;;16.12;100.00
62418;BME280;48456;54.242;10.280;2022-08-03T04:44:35;101250.50;;;16.27;100.00
62418;BME280;48456;54.242;10.280;2022-08-03T04:47:02;101251.00;;;16.44;100.00
62418;BME280;48456;54.242;10.280;2022-08-03T04:49:29;101248.00;;;16.60;100.00
62418;BME280;48456;54.242;10.280;2022-08-03T04:51:56;101243.31;;;16.71;100.00
62418;BME280;48456;54.242;10.280;2022-08-03T04:54:23;101244.72;;;16.88;100.00
62418;BME280;48456;54.242;10.280;2022-08-03T04:56:49;101242.41;;;17.10;100.00
62418;BME280;48456;54.242;10.280;2022-08-03T04:59:15;101243.59;;;17.35;100.00
62418;BME280;48456;54.242;10.280;2022-08-03T05:01:42;101241.22;;;17.57;100.00
62418;BME280;48456;54.242;10.280;2022-08-03T05:04:09;101236.22;;;17.78;100.00
62418;BME280;48456;54.242;10.280;2022-08-03T05:06:35;101235.41;;;18.08;100.00
62418;BME280;48456;54.242;10.280;2022-08-03T05:09:13;101241.09;;;18.28;100.00
62418;BME280;48456;54.242;10.280;2022-08-03T05:11:39;101242.31;;;18.47;100.00
62418;BME280;48456;54.242;10.280;2022-08-03T05:14:06;101234.75;;;18.61;100.00
62418;BME280;48456;54.242;10.280;2022-08-03T05:16:32;101237.13;;;18.70;100.00
62418;BME280;48456;54.242;10.280;2022-08-03T05:18:58;101233.25;;;18.81;100.00
62418;BME280;48456;54.242;10.280;2022-08-03T05:21:25;101231.97;;;18.93;100.00
62418;BME280;48456;54.242;10.280;2022-08-03T05:24:11;101234.28;;;19.05;100.00
62418;BME280;48456;54.242;10.280;2022-08-03T05:26:37;101231.22;;;19.16;100.00
62418;BME280;48456;54.242;10.280;2022-08-03T05:29:04;101236.31;;;19.24;100.00
62418;BME280;48456;54.242;10.280;2022-08-03T05:31:30;101231.84;;;19.25;100.00
62418;BME280;48456;54.242;10.280;2022-08-03T05:33:56;101241.63;;;19.26;100.00
62418;BME280;48456;54.242;10.280;2022-08-03T05:36:23;101236.00;;;19.33;100.00
62418;BME280;48456;54.242;10.280;2022-08-03T05:38:49;101226.72;;;19.44;100.00
62418;BME280;48456;54.242;10.280;2022-08-03T05:41:15;101228.00;;;19.59;100.00
62418;BME280;48456;54.242;10.280;2022-08-03T05:43:49;101227.69;;;19.67;100.00
62418;BME280;48456;54.242;10.280;2022-08-03T05:46:15;101226.38;;;19.79;100.00
62418;BME280;48456;54.242;10.280;2022-08-03T05:48:42;101220.44;;;19.94;100.00
62418;BME280;48456;54.242;10.280;2022-08-03T05:51:08;101231.66;;;20.07;100.00
62418;BME280;48456;54.242;10.280;2022-08-03T05:53:37;101227.63;;;20.19;100.00
62418;BME280;48456;54.242;10.280;2022-08-03T05:56:03;101221.72;;;20.33;100.00
62418;BME280;48456;54.242;10.280;2022-08-03T05:58:41;101228.31;;;20.48;100.00
62418;BME280;48456;54.242;10.280;2022-08-03T06:01:08;101222.13;;;20.69;100.00
62418;BME280;48456;54.242;10.280;2022-08-03T06:03:34;101219.53;;;20.89;100.00
62418;BME280;48456;54.242;10.280;2022-08-03T06:06:01;101215.16;;;21.09;100.00
62418;BME280;48456;54.242;10.280;2022-08-03T06:08:27;101212.63;;;21.27;100.00
62418;BME280;48456;54.242;10.280;2022-08-03T06:10:53;101211.94;;;21.42;100.00
62418;BME280;48456;54.242;10.280;2022-08-03T06:13:20;101217.66;;;21.55;100.00
62418;BME280;48456;54.242;10.280;2022-08-03T06:15:47;101215.31;;;21.68;100.00
62418;BME280;48456;54.242;10.280;2022-08-03T06:18:13;101217.13;;;21.89;100.00
62418;BME280;48456;54.242;10.280;2022-08-03T06:20:39;101220.88;;;22.05;100.00
62418;BME280;48456;54.242;10.280;2022-08-03T06:23:06;101215.03;;;22.15;100.00
62418;BME280;48456;54.242;10.280;2022-08-03T06:25:41;101219.94;;;22.26;100.00
62418;BME280;48456;54.242;10.280;2022-08-03T06:28:08;101218.25;;;22.42;100.00
62418;BME280;48456;54.242;10.280;2022-08-03T06:30:48;101222.94;;;22.58;100.00
62418;BME280;48456;54.242;10.280;2022-08-03T06:33:15;101223.22;;;22.71;100.00
62418;BME280;48456;54.242;10.280;2022-08-03T06:35:41;101224.41;;;22.83;100.00
62418;BME280;48456;54.242;10.280;2022-08-03T06:38:10;101222.38;;;22.88;100.00
62418;BME280;48456;54.242;10.280;2022-08-03T06:40:38;101222.88;;;22.96;100.00
62418;BME280;48456;54.242;10.280;2022-08-03T06:43:06;101225.03;;;23.07;100.00
62418;BME280;48456;54.242;10.280;2022-08-03T06:45:37;101220.91;;;23.18;100.00
62418;BME280;48456;54.242;10.280;2022-08-03T06:48:04;101219.72;;;23.23;100.00
62418;BME280;48456;54.242;10.280;2022-08-03T06:50:31;101216.63;;;23.31;100.00
62418;BME280;48456;54.242;10.280;2022-08-03T06:52:58;101228.28;;;23.32;100.00
62418;BME280;48456;54.242;10.280;2022-08-03T06:55:25;101221.91;;;23.34;100.00
62418;BME280;48456;54.242;10.280;2022-08-03T06:57:52;101220.38;;;23.46;100.00
62418;BME280;48456;54.242;10.280;2022-08-03T07:00:18;101230.44;;;23.60;100.00
62418;BME280;48456;54.242;10.280;2022-08-03T07:02:45;101224.16;;;23.78;100.00
62418;BME280;48456;54.242;10.280;2022-08-03T07:05:12;101222.84;;;23.85;100.00
62418;BME280;48456;54.242;10.280;2022-08-03T07:07:38;101231.97;;;24.00;100.00
62418;BME280;48456;54.242;10.280;2022-08-03T07:10:05;101222.50;;;24.09;100.00
62418;BME280;48456;54.242;10.280;2022-08-03T07:12:32;101231.53;;;24.25;100.00
62418;BME280;48456;54.242;10.280;2022-08-03T07:14:59;101233.28;;;24.43;100.00
62418;BME280;48456;54.242;10.280;2022-08-03T07:17:29;101230.06;;;24.52;100.00
62418;BME280;48456;54.242;10.280;2022-08-03T07:19:56;101226.56;;;24.66;100.00
62418;BME280;48456;54.242;10.280;2022-08-03T07:22:22;101231.97;;;24.66;100.00
62418;BME280;48456;54.242;10.280;2022-08-03T07:24:49;101230.91;;;24.69;100.00
62418;BME280;48456;54.242;10.280;2022-08-03T07:27:15;101231.34;;;24.77;100.00
62418;BME280;48456;54.242;10.280;2022-08-03T07:29:41;101238.09;;;24.86;100.00
62418;BME280;48456;54.242;10.280;2022-08-03T07:32:08;101234.69;;;24.98;100.00
62418;BME280;48456;54.242;10.280;2022-08-03T07:34:34;101233.16;;;25.09;100.00
62418;BME280;48456;54.242;10.280;2022-08-03T07:37:01;101223.63;;;25.17;100.00
62418;BME280;48456;54.242;10.280;2022-08-03T07:39:27;101228.56;;;25.25;100.00
62418;BME280;48456;54.242;10.280;2022-08-03T07:41:53;101235.13;;;25.37;100.00
62418;BME280;48456;54.242;10.280;2022-08-03T07:44:20;101230.59;;;25.52;100.00
62418;BME280;48456;54.242;10.280;2022-08-03T07:46:46;101225.63;;;25.61;100.00
62418;BME280;48456;54.242;10.280;2022-08-03T07:49:12;101234.22;;;25.67;100.00
62418;BME280;48456;54.242;10.280;2022-08-03T07:51:39;101231.63;;;25.80;100.00
62418;BME280;48456;54.242;10.280;2022-08-03T07:54:05;101236.28;;;25.93;100.00
62418;BME280;48456;54.242;10.280;2022-08-03T07:56:32;101238.78;;;25.96;100.00
62418;BME280;48456;54.242;10.280;2022-08-03T07:58:59;101232.31;;;25.99;100.00
62418;BME280;48456;54.242;10.280;2022-08-03T08:01:25;101224.94;;;26.01;100.00
62418;BME280;48456;54.242;10.280;2022-08-03T08:03:51;101220.50;;;26.14;100.00
62418;BME280;48456;54.242;10.280;2022-08-03T08:06:19;101223.31;;;26.27;100.00
62418;BME280;48456;54.242;10.280;2022-08-03T08:08:45;101225.13;;;26.41;100.00
62418;BME280;48456;54.242;10.280;2022-08-03T08:11:12;101222.88;;;26.48;100.00
62418;BME280;48456;54.242;10.280;2022-08-03T08:13:38;101214.66;;;26.50;99.66
62418;BME280;48456;54.242;10.280;2022-08-03T08:16:04;101219.81;;;26.40;98.04
62418;BME280;48456;54.242;10.280;2022-08-03T08:18:31;101224.16;;;26.42;100.00
62418;BME280;48456;54.242;10.280;2022-08-03T08:20:57;101220.16;;;26.48;100.00
62418;BME280;48456;54.242;10.280;2022-08-03T08:23:24;101216.13;;;26.68;100.00
62418;BME280;48456;54.242;10.280;2022-08-03T08:26:09;101218.19;;;26.65;99.52
62418;BME280;48456;54.242;10.280;2022-08-03T08:28:35;101222.28;;;26.57;99.68
62418;BME280;48456;54.242;10.280;2022-08-03T08:31:02;101223.25;;;26.56;100.00
62418;BME280;48456;54.242;10.280;2022-08-03T08:33:28;101221.41;;;26.57;99.90
62418;BME280;48456;54.242;10.280;2022-08-03T08:36:15;101218.63;;;26.58;100.00
62418;BME280;48456;54.242;10.280;2022-08-03T08:38:41;101216.13;;;26.68;99.36
62418;BME280;48456;54.242;10.280;2022-08-03T08:41:10;101211.50;;;26.70;100.00
62418;BME280;48456;54.242;10.280;2022-08-03T08:43:36;101216.84;;;26.85;100.00
62418;BME280;48456;54.242;10.280;2022-08-03T08:46:02;101207.06;;;26.82;100.00
62418;BME280;48456;54.242;10.280;2022-08-03T08:48:30;101211.53;;;26.83;100.00
62418;BME280;48456;54.242;10.280;2022-08-03T08:50:57;101207.63;;;26.88;100.00
62418;BME280;48456;54.242;10.280;2022-08-03T08:53:25;101210.78;;;26.81;99.62
62418;BME280;48456;54.242;10.280;2022-08-03T08:55:53;101213.78;;;27.04;100.00
62418;BME280;48456;54.242;10.280;2022-08-03T08:58:25;101208.63;;;27.14;100.00
62418;BME280;48456;54.242;10.280;2022-08-03T09:00:53;101201.44;;;27.13;100.00
62418;BME280;48456;54.242;10.280;2022-08-03T09:03:20;101206.44;;;27.06;100.00
62418;BME280;48456;54.242;10.280;2022-08-03T09:05:55;101210.44;;;27.01;100.00
62418;BME280;48456;54.242;10.280;2022-08-03T09:08:22;101204.03;;;27.02;100.00
62418;BME280;48456;54.242;10.280;2022-08-03T09:10:48;101200.56;;;27.00;100.00
62418;BME280;48456;54.242;10.280;2022-08-03T09:13:14;101199.91;;;27.09;100.00
62418;BME280;48456;54.242;10.280;2022-08-03T09:15:41;101198.63;;;27.28;100.00
62418;BME280;48456;54.242;10.280;2022-08-03T09:18:28;101204.09;;;27.41;100.00
62418;BME280;48456;54.242;10.280;2022-08-03T09:23:57;101200.28;;;27.56;100.00
62418;BME280;48456;54.242;10.280;2022-08-03T09:26:29;101213.13;;;27.54;100.00
62418;BME280;48456;54.242;10.280;2022-08-03T09:29:01;101197.03;;;27.51;97.36
62418;BME280;48456;54.242;10.280;2022-08-03T09:31:40;101203.44;;;27.50;96.99
62418;BME280;48456;54.242;10.280;2022-08-03T09:34:13;101204.03;;;27.68;96.65
62418;BME280;48456;54.242;10.280;2022-08-03T09:36:40;101205.66;;;27.71;91.30
62418;BME280;48456;54.242;10.280;2022-08-03T09:39:12;101199.25;;;27.85;93.52
62418;BME280;48456;54.242;10.280;2022-08-03T09:41:39;101210.19;;;27.96;89.74
62418;BME280;48456;54.242;10.280;2022-08-03T09:44:06;101209.78;;;28.02;91.19
62418;BME280;48456;54.242;10.280;2022-08-03T09:46:51;101202.03;;;28.09;93.01
62418;BME280;48456;54.242;10.280;2022-08-03T09:49:18;101204.97;;;28.19;88.52
62418;BME280;48456;54.242;10.280;2022-08-03T09:51:45;101211.91;;;28.10;85.70
62418;BME280;48456;54.242;10.280;2022-08-03T09:54:31;101221.28;;;28.06;90.52
62418;BME280;48456;54.242;10.280;2022-08-03T09:56:59;101197.53;;;28.21;91.50
62418;BME280;48456;54.242;10.280;2022-08-03T09:59:27;101203.44;;;28.28;89.71
62418;BME280;48456;54.242;10.280;2022-08-03T10:01:54;101198.75;;;28.30;90.30
62418;BME280;48456;54.242;10.280;2022-08-03T10:04:21;101201.88;;;28.24;90.48
62418;BME280;48456;54.242;10.280;2022-08-03T10:07:09;101198.44;;;28.09;94.46
62418;BME280;48456;54.242;10.280;2022-08-03T10:09:35;101188.66;;;28.06;95.62
62418;BME280;48456;54.242;10.280;2022-08-03T10:12:11;101184.50;;;28.13;100.00
62418;BME280;48456;54.242;10.280;2022-08-03T10:14:38;101194.19;;;28.18;97.08
62418;BME280;48456;54.242;10.280;2022-08-03T10:17:04;101205.28;;;28.27;100.00
62418;BME280;48456;54.242;10.280;2022-08-03T10:19:31;101192.16;;;28.46;98.59
62418;BME280;48456;54.242;10.280;2022-08-03T10:22:00;101186.28;;;28.52;94.63
62418;BME280;48456;54.242;10.280;2022-08-03T10:24:28;101202.38;;;28.55;93.97
62418;BME280;48456;54.242;10.280;2022-08-03T10:26:56;101199.81;;;28.65;93.39
62418;BME280;48456;54.242;10.280;2022-08-03T10:29:27;101192.47;;;28.78;92.84
62418;BME280;48456;54.242;10.280;2022-08-03T10:31:55;101189.34;;;28.96;93.09
62418;BME280;48456;54.242;10.280;2022-08-03T10:34:27;101198.38;;;28.97;89.77
62418;BME280;48456;54.242;10.280;2022-08-03T10:36:57;101191.13;;;29.09;89.40
62418;BME280;48456;54.242;10.280;2022-08-03T10:39:28;101188.75;;;29.04;88.30
62418;BME280;48456;54.242;10.280;2022-08-03T10:41:54;101193.03;;;29.20;91.55
62418;BME280;48456;54.242;10.280;2022-08-03T10:44:25;101179.44;;;29.42;87.56
62418;BME280;48456;54.242;10.280;2022-08-03T10:46:55;101182.28;;;29.29;85.46
62418;BME280;48456;54.242;10.280;2022-08-03T10:49:21;101175.47;;;29.35;86.54
62418;BME280;48456;54.242;10.280;2022-08-03T10:52:00;101181.16;;;29.43;86.68
62418;BME280;48456;54.242;10.280;2022-08-03T10:54:44;101187.06;;;29.62;82.69
62418;BME280;48456;54.242;10.280;2022-08-03T11:00:07;101187.91;;;29.74;83.09
62418;BME280;48456;54.242;10.280;2022-08-03T11:05:24;101196.59;;;30.25;77.59
62418;BME280;48456;54.242;10.280;2022-08-03T11:07:50;101194.94;;;31.22;73.32
62418;BME280;48456;54.242;10.280;2022-08-03T11:10:37;101182.59;;;32.01;63.75
62418;BME280;48456;54.242;10.280;2022-08-03T11:13:06;101186.66;;;32.68;57.92
62418;BME280;48456;54.242;10.280;2022-08-03T11:15:33;101185.91;;;32.76;57.07
62418;BME280;48456;54.242;10.280;2022-08-03T11:18:06;101189.03;;;33.50;53.74
62418;BME280;48456;54.242;10.280;2022-08-03T11:20:49;101189.47;;;33.93;49.20
62418;BME280;48456;54.242;10.280;2022-08-03T11:23:17;101190.13;;;34.33;48.72
62418;BME280;48456;54.242;10.280;2022-08-03T11:28:33;101188.56;;;34.77;43.98
62418;BME280;48456;54.242;10.280;2022-08-03T11:34:08;101194.19;;;34.29;44.36
62418;BME280;48456;54.242;10.280;2022-08-03T11:39:37;101204.34;;;34.29;45.02
62418;BME280;48456;54.242;10.280;2022-08-03T11:44:59;101197.00;;;33.24;49.31
62418;BME280;48456;54.242;10.280;2022-08-03T11:47:26;101204.53;;;33.12;54.30
62418;BME280;48456;54.242;10.280;2022-08-03T11:49:54;101203.63;;;32.62;52.80
62418;BME280;48456;54.242;10.280;2022-08-03T11:52:20;101203.22;;;32.15;58.39
62418;BME280;48456;54.242;10.280;2022-08-03T11:54:53;101191.97;;;32.60;54.55
62418;BME280;48456;54.242;10.280;2022-08-03T11:57:33;101200.63;;;33.24;49.74
62418;BME280;48456;54.242;10.280;2022-08-03T12:00:21;101191.44;;;34.29;48.63
62418;BME280;48456;54.242;10.280;2022-08-03T12:03:06;101196.53;;;35.07;45.14
62418;BME280;48456;54.242;10.280;2022-08-03T12:05:40;101197.66;;;35.14;43.62
62418;BME280;48456;54.242;10.280;2022-08-03T12:10:53;101191.19;;;33.94;48.48
62418;BME280;48456;54.242;10.280;2022-08-03T12:13:20;101193.97;;;34.69;46.64
62418;BME280;48456;54.242;10.280;2022-08-03T12:16:07;101185.66;;;34.04;48.12
62418;BME280;48456;54.242;10.280;2022-08-03T12:18:34;101183.13;;;33.93;48.13
62418;BME280;48456;54.242;10.280;2022-08-03T12:21:05;101184.09;;;34.30;48.06
62418;BME280;48456;54.242;10.280;2022-08-03T12:23:33;101183.28;;;34.66;47.12
62418;BME280;48456;54.242;10.280;2022-08-03T12:26:07;101180.44;;;34.57;46.89
62418;BME280;48456;54.242;10.280;2022-08-03T12:28:34;101184.19;;;34.10;46.18
62418;BME280;48456;54.242;10.280;2022-08-03T12:31:06;101182.59;;;33.79;49.42
62418;BME280;48456;54.242;10.280;2022-08-03T12:36:19;101184.41;;;34.73;46.21
62418;BME280;48456;54.242;10.280;2022-08-03T12:38:52;101181.31;;;34.76;46.33
62418;BME280;48456;54.242;10.280;2022-08-03T12:41:25;101176.22;;;34.81;43.41
62418;BME280;48456;54.242;10.280;2022-08-03T12:43:52;101174.66;;;34.79;43.69
62418;BME280;48456;54.242;10.280;2022-08-03T12:46:20;101187.09;;;35.09;44.72
62418;BME280;48456;54.242;10.280;2022-08-03T12:48:59;101183.84;;;35.85;43.60
62418;BME280;48456;54.242;10.280;2022-08-03T12:51:29;101183.28;;;36.17;39.82
62418;BME280;48456;54.242;10.280;2022-08-03T12:53:57;101178.84;;;36.32;36.94
62418;BME280;48456;54.242;10.280;2022-08-03T12:56:24;101186.22;;;35.80;37.93
62418;BME280;48456;54.242;10.280;2022-08-03T12:58:51;101188.28;;;35.25;39.12
62418;BME280;48456;54.242;10.280;2022-08-03T13:01:18;101195.13;;;35.47;39.71
62418;BME280;48456;54.242;10.280;2022-08-03T13:03:48;101192.13;;;35.32;39.86
62418;BME280;48456;54.242;10.280;2022-08-03T13:06:22;101195.66;;;35.24;39.80
62418;BME280;48456;54.242;10.280;2022-08-03T13:08:49;101198.16;;;35.62;38.95
62418;BME280;48456;54.242;10.280;2022-08-03T13:11:23;101200.22;;;35.42;39.05
62418;BME280;48456;54.242;10.280;2022-08-03T13:14:10;101192.78;;;34.90;41.87
62418;BME280;48456;54.242;10.280;2022-08-03T13:16:44;101199.16;;;34.26;41.63
62418;BME280;48456;54.242;10.280;2022-08-03T13:19:11;101189.69;;;33.72;42.39
62418;BME280;48456;54.242;10.280;2022-08-03T13:21:41;101195.00;;;33.26;45.62
62418;BME280;48456;54.242;10.280;2022-08-03T13:24:28;101199.00;;;33.31;46.29